Time;durP1;ratioP1;P1;durP2;ratioP2;P2;SDS_P1;SDS_P2;PMS_P1;PMS_P2;Temp;Humidity;BMP_temperature;BMP_pressure;BME280_temperature;BME280_humidity;BME280_pressure;Samples;Min_cycle;Max_cycle;Signal;HPM_P1;HPM_P2
2022/03/24 00:00:39;;;;;;;6.28;4.95;;;;;;;;;;5067965;28;20048;-78
2022/03/24 00:03:07;;;;;;;7.10;5.35;;;;;;;;;;5065965;28;20094;-79
2022/03/24 00:05:35;;;;;;;6.78;5.32;;;;;;;;;;5068070;28;20105;-79
2022/03/24 00:08:02;;;;;;;6.07;4.63;;;;;;;;;;5081056;28;20044;-78
2022/03/24 00:10:30;;;;;;;5.55;4.95;;;;;;;;;;5082445;28;20036;-76
2022/03/24 00:12:57;;;;;;;6.10;4.93;;;;;;;;;;5065677;28;20114;-78
2022/03/24 00:15:25;;;;;;;6.35;4.93;;;;;;;;;;5057584;28;20040;-77
2022/03/24 00:17:53;;;;;;;7.05;5.20;;;;;;;;;;5099607;28;20040;-76
2022/03/24 00:20:22;;;;;;;6.07;5.22;;;;;;;;;;5101310;28;20593;-77
2022/03/24 00:22:49;;;;;;;5.70;5.15;;;;;;;;;;5064208;28;20338;-76
2022/03/24 00:25:16;;;;;;;7.30;5.30;;;;;;;;;;5064729;28;20041;-78
2022/03/24 00:27:44;;;;;;;6.88;4.80;;;;;;;;;;5046863;28;20041;-78
2022/03/24 00:30:12;;;;;;;5.20;4.70;;;;;;;;;;5065249;28;20424;-78
2022/03/24 00:32:39;;;;;;;6.10;4.22;;;;;;;;;;5047493;28;20055;-76
2022/03/24 00:35:08;;;;;;;4.93;4.53;;;;;;;;;;5064984;28;20135;-76
2022/03/24 00:37:35;;;;;;;5.68;4.72;;;;;;;;;;5046539;28;20044;-77
2022/03/24 00:40:06;;;;;;;6.78;5.30;;;;;;;;;;5065009;28;20258;-76
2022/03/24 00:42:36;;;;;;;5.22;4.70;;;;;;;;;;5052945;28;20040;-77
2022/03/24 00:45:10;;;;;;;7.68;4.65;;;;;;;;;;5099308;28;20036;-77
2022/03/24 00:47:42;;;;;;;6.00;4.93;;;;;;;;;;5054980;28;20495;-77
2022/03/24 00:50:10;;;;;;;5.50;4.93;;;;;;;;;;5087949;28;20131;-76
2022/03/24 00:52:41;;;;;;;7.68;5.07;;;;;;;;;;5071351;28;20491;-79
2022/03/24 00:55:12;;;;;;;6.40;4.90;;;;;;;;;;5067808;28;20123;-78
2022/03/24 00:57:40;;;;;;;6.50;5.40;;;;;;;;;;5085903;28;20093;-77
2022/03/24 01:00:09;;;;;;;6.32;5.35;;;;;;;;;;5068466;28;20044;-78
2022/03/24 01:02:37;;;;;;;5.75;4.63;;;;;;;;;;5062682;28;20032;-78
2022/03/24 01:05:08;;;;;;;10.32;5.88;;;;;;;;;;5070252;28;20180;-77
2022/03/24 01:07:36;;;;;;;6.78;5.30;;;;;;;;;;5053771;28;20685;-77
2022/03/24 01:10:07;;;;;;;5.65;5.13;;;;;;;;;;5070516;28;20044;-77
2022/03/24 01:12:34;;;;;;;5.78;4.90;;;;;;;;;;5088962;28;20054;-76
2022/03/24 01:15:04;;;;;;;7.05;5.65;;;;;;;;;;5088950;28;20334;-79
2022/03/24 01:17:32;;;;;;;7.00;5.38;;;;;;;;;;5050522;28;20332;-76
2022/03/24 01:19:59;;;;;;;5.88;5.13;;;;;;;;;;5069788;28;20507;-76
2022/03/24 01:22:27;;;;;;;5.18;4.68;;;;;;;;;;5068892;28;20076;-76
2022/03/24 01:24:55;;;;;;;6.13;5.38;;;;;;;;;;5071204;28;20044;-76
2022/03/24 01:27:28;;;;;;;7.00;6.30;;;;;;;;;;5069452;28;20048;-78
2022/03/24 01:29:56;;;;;;;7.13;5.38;;;;;;;;;;5071090;28;20086;-77
2022/03/24 01:32:26;;;;;;;6.18;4.90;;;;;;;;;;5083884;28;20385;-77
2022/03/24 01:34:54;;;;;;;6.00;5.30;;;;;;;;;;5088572;28;20055;-77
2022/03/24 01:37:23;;;;;;;6.55;4.75;;;;;;;;;;5050339;28;20123;-77
2022/03/24 01:39:50;;;;;;;5.63;4.65;;;;;;;;;;5034052;28;20045;-77
2022/03/24 01:42:18;;;;;;;7.28;5.32;;;;;;;;;;5069118;28;20120;-78
2022/03/24 01:44:46;;;;;;;7.35;4.82;;;;;;;;;;5068347;28;20051;-77
2022/03/24 01:47:14;;;;;;;6.45;5.45;;;;;;;;;;5051985;28;20039;-79
2022/03/24 01:49:47;;;;;;;6.10;5.43;;;;;;;;;;5053675;28;20113;-78
2022/03/24 01:52:18;;;;;;;6.97;5.13;;;;;;;;;;5066796;28;20569;-77
2022/03/24 01:54:46;;;;;;;6.15;5.40;;;;;;;;;;5041850;28;20060;-77
2022/03/24 01:57:15;;;;;;;6.07;5.22;;;;;;;;;;5052737;28;20046;-78
2022/03/24 01:59:43;;;;;;;5.68;4.45;;;;;;;;;;5065892;28;20047;-78
2022/03/24 02:02:11;;;;;;;6.20;5.60;;;;;;;;;;5085027;28;20407;-77
2022/03/24 02:04:39;;;;;;;10.93;4.63;;;;;;;;;;5086283;28;20499;-77
2022/03/24 02:07:08;;;;;;;5.70;4.38;;;;;;;;;;5064988;28;20511;-77
2022/03/24 02:09:38;;;;;;;4.97;4.47;;;;;;;;;;5068295;28;20048;-76
2022/03/24 02:12:10;;;;;;;5.80;4.90;;;;;;;;;;5064277;28;20047;-77
2022/03/24 02:14:38;;;;;;;5.35;4.75;;;;;;;;;;5068632;28;20040;-76
2022/03/24 02:17:06;;;;;;;4.80;4.22;;;;;;;;;;5065504;28;20036;-76
2022/03/24 02:19:36;;;;;;;5.55;4.93;;;;;;;;;;5067376;28;20106;-78
2022/03/24 02:22:07;;;;;;;5.28;4.75;;;;;;;;;;5056630;28;20476;-76
2022/03/24 02:24:37;;;;;;;5.03;4.50;;;;;;;;;;5058240;28;20122;-76
2022/03/24 02:27:04;;;;;;;6.93;4.55;;;;;;;;;;5064317;28;21144;-76
2022/03/24 02:29:32;;;;;;;5.55;4.78;;;;;;;;;;5077353;28;20037;-78
2022/03/24 02:31:59;;;;;;;7.18;5.00;;;;;;;;;;5085256;28;20446;-77
2022/03/24 02:37:15;;;;;;;11.55;5.78;;;;;;;;;;5088770;28;20454;-76
2022/03/24 02:39:43;;;;;;;5.82;4.88;;;;;;;;;;5089955;28;20047;-78
2022/03/24 02:42:14;;;;;;;7.70;5.50;;;;;;;;;;5053731;28;20040;-77
2022/03/24 02:44:46;;;;;;;6.03;5.38;;;;;;;;;;5068097;28;20049;-77
2022/03/24 02:47:14;;;;;;;6.95;5.60;;;;;;;;;;5064636;28;20107;-77
2022/03/24 02:49:42;;;;;;;5.70;5.10;;;;;;;;;;5058896;28;20076;-77
2022/03/24 02:52:09;;;;;;;6.05;5.45;;;;;;;;;;5053795;28;20573;-79
2022/03/24 02:54:37;;;;;;;5.78;5.20;;;;;;;;;;5069534;28;20131;-76
2022/03/24 02:57:05;;;;;;;5.93;5.32;;;;;;;;;;5066020;28;20135;-77
2022/03/24 02:59:33;;;;;;;5.57;5.07;;;;;;;;;;5088856;28;20051;-77
2022/03/24 03:02:08;;;;;;;8.27;5.40;;;;;;;;;;5072666;28;20457;-76
2022/03/24 03:04:36;;;;;;;6.57;5.40;;;;;;;;;;5082769;28;20058;-78
2022/03/24 03:07:04;;;;;;;5.05;4.55;;;;;;;;;;5068173;28;20588;-76
2022/03/24 03:09:32;;;;;;;8.93;5.18;;;;;;;;;;5068152;28;20072;-76
2022/03/24 03:12:00;;;;;;;7.70;5.22;;;;;;;;;;5084006;28;20047;-77
2022/03/24 03:14:29;;;;;;;5.80;5.13;;;;;;;;;;5087907;28;20141;-76
2022/03/24 03:16:57;;;;;;;5.45;4.90;;;;;;;;;;5086265;28;20387;-78
2022/03/24 03:19:25;;;;;;;5.75;5.05;;;;;;;;;;5052705;28;20048;-77
2022/03/24 03:21:53;;;;;;;6.00;5.03;;;;;;;;;;5063936;28;20044;-77
2022/03/24 03:24:22;;;;;;;5.70;4.95;;;;;;;;;;5088006;28;20041;-76
2022/03/24 03:26:49;;;;;;;8.70;5.28;;;;;;;;;;5087903;28;20050;-78
2022/03/24 03:29:17;;;;;;;6.68;5.10;;;;;;;;;;5070759;28;20040;-78
2022/03/24 03:31:45;;;;;;;5.97;4.75;;;;;;;;;;5079940;28;20052;-76
2022/03/24 03:34:14;;;;;;;6.18;5.25;;;;;;;;;;5081634;28;20044;-76
2022/03/24 03:36:42;;;;;;;9.15;6.65;;;;;;;;;;5074652;28;20113;-76
2022/03/24 03:39:09;;;;;;;7.57;6.05;;;;;;;;;;5051025;28;20508;-78
2022/03/24 03:41:39;;;;;;;9.13;6.68;;;;;;;;;;5061814;28;20051;-75
2022/03/24 03:44:06;;;;;;;10.00;7.03;;;;;;;;;;5087563;28;20323;-76
2022/03/24 03:46:34;;;;;;;12.77;8.05;;;;;;;;;;5087062;28;20415;-77
2022/03/24 03:49:02;;;;;;;12.88;8.25;;;;;;;;;;5086135;28;20101;-78
2022/03/24 03:51:31;;;;;;;13.18;8.20;;;;;;;;;;5067251;28;20044;-76
2022/03/24 03:53:59;;;;;;;13.07;8.30;;;;;;;;;;5032784;28;20045;-77
2022/03/24 03:56:26;;;;;;;16.30;10.55;;;;;;;;;;5066858;28;20041;-77
2022/03/24 03:58:53;;;;;;;19.50;10.85;;;;;;;;;;5067577;28;20036;-76
2022/03/24 04:01:21;;;;;;;20.50;10.38;;;;;;;;;;5068015;28;20040;-76
2022/03/24 04:03:48;;;;;;;22.55;11.68;;;;;;;;;;5067411;28;20150;-75
2022/03/24 04:06:16;;;;;;;18.52;10.73;;;;;;;;;;5067223;28;20040;-76
2022/03/24 04:08:43;;;;;;;19.80;10.48;;;;;;;;;;5067614;28;20508;-77
2022/03/24 04:11:12;;;;;;;22.17;11.48;;;;;;;;;;5067406;28;20082;-76
2022/03/24 04:13:43;;;;;;;21.90;12.05;;;;;;;;;;5060998;28;20040;-76
2022/03/24 04:16:11;;;;;;;16.33;9.80;;;;;;;;;;5072506;28;20040;-77
2022/03/24 04:18:43;;;;;;;17.35;9.93;;;;;;;;;;5078865;28;20359;-77
2022/03/24 04:21:11;;;;;;;16.02;8.63;;;;;;;;;;5079543;28;20474;-76
2022/03/24 04:23:39;;;;;;;19.55;10.70;;;;;;;;;;5084350;28;20044;-76
2022/03/24 04:26:07;;;;;;;13.88;7.65;;;;;;;;;;5086157;28;20040;-76
2022/03/24 04:28:35;;;;;;;15.68;8.88;;;;;;;;;;5086420;28;20620;-76
2022/03/24 04:31:02;;;;;;;14.13;8.68;;;;;;;;;;5086592;28;20135;-78
2022/03/24 04:33:30;;;;;;;12.88;7.93;;;;;;;;;;5086743;28;20058;-75
2022/03/24 04:35:58;;;;;;;11.38;7.72;;;;;;;;;;5074178;28;20448;-76
2022/03/24 04:38:26;;;;;;;13.25;8.68;;;;;;;;;;5065587;28;20159;-77
2022/03/24 04:40:57;;;;;;;13.90;7.70;;;;;;;;;;5071355;28;20484;-78
2022/03/24 04:43:24;;;;;;;10.45;7.25;;;;;;;;;;5066719;28;20044;-76
2022/03/24 04:45:52;;;;;;;11.05;7.50;;;;;;;;;;5057800;28;20557;-78
2022/03/24 04:48:20;;;;;;;10.82;8.07;;;;;;;;;;5057388;28;20178;-76
2022/03/24 04:50:48;;;;;;;10.40;7.75;;;;;;;;;;5049520;28;20044;-77
2022/03/24 04:53:15;;;;;;;13.40;9.77;;;;;;;;;;5069641;28;20135;-75
2022/03/24 04:55:44;;;;;;;13.18;8.85;;;;;;;;;;5074296;28;20131;-77
2022/03/24 04:58:12;;;;;;;13.68;8.73;;;;;;;;;;5079423;28;20063;-78
2022/03/24 05:00:39;;;;;;;8.38;6.35;;;;;;;;;;5066296;28;20044;-76
2022/03/24 05:03:07;;;;;;;13.85;8.20;;;;;;;;;;5078246;28;20411;-77
2022/03/24 05:05:34;;;;;;;10.98;8.02;;;;;;;;;;5068768;28;20061;-75
2022/03/24 05:08:04;;;;;;;10.48;7.53;;;;;;;;;;5083597;28;20158;-76
2022/03/24 05:10:32;;;;;;;11.80;8.43;;;;;;;;;;5080338;28;20151;-75
2022/03/24 05:12:59;;;;;;;12.35;9.07;;;;;;;;;;5062718;28;20135;-76
2022/03/24 05:15:27;;;;;;;11.40;8.32;;;;;;;;;;5073834;28;20044;-78
2022/03/24 05:17:54;;;;;;;14.02;8.38;;;;;;;;;;5062215;28;20044;-77
2022/03/24 05:20:23;;;;;;;13.60;8.65;;;;;;;;;;5081534;28;20040;-79
2022/03/24 05:22:50;;;;;;;11.00;7.45;;;;;;;;;;5083512;28;20037;-77
2022/03/24 05:25:18;;;;;;;11.50;7.63;;;;;;;;;;5080028;28;20052;-77
2022/03/24 05:27:45;;;;;;;12.27;8.13;;;;;;;;;;5084192;28;20355;-76
2022/03/24 05:30:14;;;;;;;12.05;8.32;;;;;;;;;;5068092;28;20457;-77
2022/03/24 05:32:43;;;;;;;8.52;7.25;;;;;;;;;;5078229;28;20237;-76
2022/03/24 05:35:10;;;;;;;10.30;8.05;;;;;;;;;;5080589;28;20052;-77
2022/03/24 05:37:38;;;;;;;9.20;7.97;;;;;;;;;;5080155;28;20055;-77
2022/03/24 05:40:06;;;;;;;12.23;8.63;;;;;;;;;;5080126;28;20044;-78
2022/03/24 05:42:33;;;;;;;8.20;7.07;;;;;;;;;;5099583;28;20081;-78
2022/03/24 05:45:01;;;;;;;9.23;7.15;;;;;;;;;;5069833;28;20066;-76
2022/03/24 05:47:32;;;;;;;12.05;8.32;;;;;;;;;;5085958;28;20422;-78
2022/03/24 05:49:59;;;;;;;8.75;7.43;;;;;;;;;;5083121;28;20071;-75
2022/03/24 05:52:49;;;;;;;13.82;7.28;;;;;;;;;;5068083;28;20063;-76
2022/03/24 05:55:17;;;;;;;9.98;6.93;;;;;;;;;;5077602;28;20410;-76
2022/03/24 05:57:44;;;;;;;10.80;8.05;;;;;;;;;;5077315;28;20044;-78
2022/03/24 06:00:12;;;;;;;9.48;7.90;;;;;;;;;;5082699;28;20040;-76
2022/03/24 06:02:40;;;;;;;12.90;8.13;;;;;;;;;;5077944;28;20102;-76
2022/03/24 06:05:09;;;;;;;9.10;7.90;;;;;;;;;;5066566;28;20443;-76
2022/03/24 06:07:37;;;;;;;8.15;6.97;;;;;;;;;;5064195;28;20136;-78
2022/03/24 06:10:06;;;;;;;8.48;7.40;;;;;;;;;;5078510;28;20403;-76
2022/03/24 06:12:33;;;;;;;8.98;7.25;;;;;;;;;;5063756;28;20112;-79
2022/03/24 06:15:02;;;;;;;10.85;7.32;;;;;;;;;;5059814;28;20069;-78
2022/03/24 06:17:30;;;;;;;8.48;7.13;;;;;;;;;;5069429;28;20472;-77
2022/03/24 06:19:57;;;;;;;9.00;7.70;;;;;;;;;;5058089;28;20036;-76
2022/03/24 06:22:24;;;;;;;12.55;7.53;;;;;;;;;;5062628;28;20059;-76
2022/03/24 06:24:52;;;;;;;8.48;7.50;;;;;;;;;;5079278;28;20048;-77
2022/03/24 06:27:19;;;;;;;8.85;7.95;;;;;;;;;;5083286;28;20063;-76
2022/03/24 06:29:47;;;;;;;10.27;7.75;;;;;;;;;;5087966;28;20052;-77
2022/03/24 06:32:15;;;;;;;10.32;7.95;;;;;;;;;;5087917;28;20134;-78
2022/03/24 06:34:43;;;;;;;9.40;8.35;;;;;;;;;;5087272;28;20036;-78
2022/03/24 06:37:11;;;;;;;12.13;7.93;;;;;;;;;;5082528;28;20400;-78
2022/03/24 06:39:39;;;;;;;12.52;9.85;;;;;;;;;;5077636;28;20573;-77
2022/03/24 06:42:06;;;;;;;15.10;8.00;;;;;;;;;;5079272;28;20036;-77
2022/03/24 06:44:35;;;;;;;12.85;8.77;;;;;;;;;;5060281;28;20113;-77
2022/03/24 06:47:03;;;;;;;9.70;7.70;;;;;;;;;;5076065;28;20627;-77
2022/03/24 06:49:31;;;;;;;12.90;7.10;;;;;;;;;;5069243;28;20039;-79
2022/03/24 06:51:58;;;;;;;9.85;6.45;;;;;;;;;;5070338;28;20488;-78
2022/03/24 06:54:26;;;;;;;10.35;6.28;;;;;;;;;;5066218;28;20044;-79
2022/03/24 06:56:53;;;;;;;11.90;7.03;;;;;;;;;;5080230;28;20048;-77
2022/03/24 06:59:21;;;;;;;12.15;6.30;;;;;;;;;;5073087;28;20048;-77
2022/03/24 07:01:49;;;;;;;7.85;6.88;;;;;;;;;;5085954;28;20105;-79
2022/03/24 07:04:16;;;;;;;10.93;6.60;;;;;;;;;;5071507;28;20187;-80
2022/03/24 07:06:44;;;;;;;7.68;6.10;;;;;;;;;;5060947;28;20102;-77
2022/03/24 07:09:11;;;;;;;7.50;6.00;;;;;;;;;;5072347;28;20040;-77
2022/03/24 07:11:39;;;;;;;8.30;5.80;;;;;;;;;;5081002;28;20437;-77
2022/03/24 07:14:06;;;;;;;10.98;6.38;;;;;;;;;;5077141;28;20044;-77
2022/03/24 07:16:33;;;;;;;11.27;6.43;;;;;;;;;;5082164;28;20078;-79
2022/03/24 07:19:01;;;;;;;7.85;6.47;;;;;;;;;;5081090;28;20096;-77
2022/03/24 07:21:29;;;;;;;7.20;6.47;;;;;;;;;;5061506;28;20471;-77
2022/03/24 07:23:57;;;;;;;7.22;6.53;;;;;;;;;;5070005;28;20036;-77
2022/03/24 07:26:24;;;;;;;7.82;6.18;;;;;;;;;;5066577;28;20079;-77
2022/03/24 07:28:51;;;;;;;6.72;6.03;;;;;;;;;;5088377;28;20123;-75
2022/03/24 07:31:19;;;;;;;9.85;6.47;;;;;;;;;;5060433;28;20059;-77
2022/03/24 07:33:48;;;;;;;9.20;6.35;;;;;;;;;;5062112;28;20140;-77
2022/03/24 07:36:16;;;;;;;6.55;5.95;;;;;;;;;;5087829;28;20068;-77
2022/03/24 07:38:43;;;;;;;6.18;5.40;;;;;;;;;;5080990;28;20135;-77
2022/03/24 07:41:11;;;;;;;8.55;6.00;;;;;;;;;;5027405;28;20072;-77
2022/03/24 07:43:39;;;;;;;6.13;5.53;;;;;;;;;;5070363;28;20598;-78
2022/03/24 07:46:06;;;;;;;6.47;5.75;;;;;;;;;;5071343;28;20068;-77
2022/03/24 07:48:34;;;;;;;7.03;6.13;;;;;;;;;;5076686;28;20058;-77
2022/03/24 07:51:01;;;;;;;13.25;6.10;;;;;;;;;;5085753;28;20052;-79
2022/03/24 07:53:29;;;;;;;7.30;6.00;;;;;;;;;;5086558;28;20048;-78
2022/03/24 07:55:57;;;;;;;7.28;6.47;;;;;;;;;;5073021;28;20054;-75
2022/03/24 07:58:24;;;;;;;6.07;5.43;;;;;;;;;;5056128;28;20036;-77
2022/03/24 08:00:52;;;;;;;8.63;6.22;;;;;;;;;;5087201;28;20040;-79
2022/03/24 08:03:21;;;;;;;12.25;6.80;;;;;;;;;;5078775;28;20043;-79
2022/03/24 08:05:49;;;;;;;6.45;5.85;;;;;;;;;;5078016;28;20036;-79
2022/03/24 08:08:17;;;;;;;10.70;6.32;;;;;;;;;;5088568;28;20048;-78
2022/03/24 08:10:46;;;;;;;6.97;6.28;;;;;;;;;;5087297;28;20464;-78
2022/03/24 08:13:15;;;;;;;6.63;5.97;;;;;;;;;;5083003;28;20040;-77
2022/03/24 08:15:43;;;;;;;6.32;5.72;;;;;;;;;;5068870;28;20703;-78
2022/03/24 08:18:11;;;;;;;9.38;6.60;;;;;;;;;;5069457;28;20380;-78
2022/03/24 08:20:39;;;;;;;10.07;6.97;;;;;;;;;;5073494;28;20039;-79
2022/03/24 08:23:10;;;;;;;14.80;7.32;;;;;;;;;;5077599;28;20041;-77
2022/03/24 08:25:40;;;;;;;10.00;6.83;;;;;;;;;;5066653;28;20079;-78
2022/03/24 08:28:08;;;;;;;9.65;7.55;;;;;;;;;;5070292;28;20032;-79
2022/03/24 08:30:35;;;;;;;8.00;7.20;;;;;;;;;;5082450;28;20083;-77
2022/03/24 08:33:03;;;;;;;8.45;7.60;;;;;;;;;;5072899;28;20155;-76
2022/03/24 08:35:31;;;;;;;12.82;8.20;;;;;;;;;;5080864;28;20051;-75
2022/03/24 08:37:59;;;;;;;8.80;7.10;;;;;;;;;;5053832;28;20040;-79
2022/03/24 08:40:27;;;;;;;12.05;6.97;;;;;;;;;;5075336;28;20403;-77
2022/03/24 08:42:54;;;;;;;10.25;7.93;;;;;;;;;;5051286;28;20053;-79
2022/03/24 08:45:22;;;;;;;8.13;7.20;;;;;;;;;;5058294;28;20040;-76
2022/03/24 08:47:50;;;;;;;8.15;7.40;;;;;;;;;;5060283;28;20106;-77
2022/03/24 08:50:18;;;;;;;7.68;6.95;;;;;;;;;;5068551;28;20033;-76
2022/03/24 08:52:46;;;;;;;9.40;7.60;;;;;;;;;;5043152;28;20052;-77
2022/03/24 08:55:13;;;;;;;10.65;7.95;;;;;;;;;;5066511;28;20040;-77
2022/03/24 08:57:42;;;;;;;9.80;7.13;;;;;;;;;;5059212;28;20047;-77
2022/03/24 09:00:16;;;;;;;7.88;7.07;;;;;;;;;;5062596;28;20054;-78
2022/03/24 09:02:46;;;;;;;12.93;8.32;;;;;;;;;;5053739;28;20056;-78
2022/03/24 09:05:14;;;;;;;8.20;7.15;;;;;;;;;;5081880;28;20476;-80
2022/03/24 09:07:41;;;;;;;9.02;7.60;;;;;;;;;;5082512;28;20043;-76
2022/03/24 09:10:10;;;;;;;8.73;7.85;;;;;;;;;;5064958;28;20067;-77
2022/03/24 09:12:39;;;;;;;8.65;7.50;;;;;;;;;;5072375;28;20040;-78
2022/03/24 09:15:09;;;;;;;10.00;7.15;;;;;;;;;;5078424;28;20489;-77
2022/03/24 09:17:37;;;;;;;11.57;7.55;;;;;;;;;;5074157;28;20051;-79
2022/03/24 09:20:09;;;;;;;7.80;6.97;;;;;;;;;;5066177;28;20044;-77
2022/03/24 09:22:37;;;;;;;13.65;7.68;;;;;;;;;;5074212;28;20032;-79
2022/03/24 09:25:06;;;;;;;8.77;7.88;;;;;;;;;;5071514;28;20048;-76
2022/03/24 09:27:34;;;;;;;9.43;7.65;;;;;;;;;;5072102;28;20520;-77
2022/03/24 09:30:03;;;;;;;12.55;8.02;;;;;;;;;;5072312;28;20456;-77
2022/03/24 09:32:31;;;;;;;8.65;7.57;;;;;;;;;;5091360;28;20459;-76
2022/03/24 09:34:59;;;;;;;9.93;8.27;;;;;;;;;;5071505;28;20050;-77
2022/03/24 09:37:26;;;;;;;9.85;8.68;;;;;;;;;;5057582;28;20101;-77
2022/03/24 09:39:54;;;;;;;10.43;7.35;;;;;;;;;;5093183;28;20074;-78
2022/03/24 09:42:22;;;;;;;10.65;8.15;;;;;;;;;;5094242;28;20047;-78
2022/03/24 09:44:49;;;;;;;8.85;7.55;;;;;;;;;;5076151;28;20048;-77
2022/03/24 09:47:17;;;;;;;8.20;7.40;;;;;;;;;;5074301;28;20100;-77
2022/03/24 09:49:44;;;;;;;13.02;7.55;;;;;;;;;;5074062;28;20505;-78
2022/03/24 09:52:12;;;;;;;9.85;8.13;;;;;;;;;;5053363;28;20048;-78
2022/03/24 09:54:45;;;;;;;8.85;8.05;;;;;;;;;;5035514;28;20080;-77
2022/03/24 09:57:13;;;;;;;11.02;8.85;;;;;;;;;;5080464;28;20488;-79
2022/03/24 09:59:41;;;;;;;9.13;8.23;;;;;;;;;;5065322;28;20557;-78
2022/03/24 10:02:09;;;;;;;9.10;7.85;;;;;;;;;;5052539;28;20072;-77
2022/03/24 10:04:44;;;;;;;10.20;7.90;;;;;;;;;;5067842;28;20056;-77
2022/03/24 10:07:16;;;;;;;10.05;8.07;;;;;;;;;;5086327;28;20085;-77
2022/03/24 10:09:45;;;;;;;12.57;9.25;;;;;;;;;;5089093;28;20032;-77
2022/03/24 10:12:23;;;;;;;12.35;9.45;;;;;;;;;;5071311;28;20048;-77
2022/03/24 10:14:58;;;;;;;12.73;8.95;;;;;;;;;;5048831;28;20179;-79
2022/03/24 10:17:25;;;;;;;11.45;9.32;;;;;;;;;;5050319;28;20408;-76
2022/03/24 10:20:18;;;;;;;9.13;8.23;;;;;;;;;;5085415;22;20281;-74
2022/03/24 10:22:54;;;;;;;12.63;9.20;;;;;;;;;;5072484;28;20051;-75
2022/03/24 10:25:23;;;;;;;9.73;8.73;;;;;;;;;;5072587;28;20249;-75
2022/03/24 10:28:05;;;;;;;12.85;9.85;;;;;;;;;;5091825;28;20495;-74
2022/03/24 10:30:52;;;;;;;11.75;9.68;;;;;;;;;;5088107;28;20040;-75
2022/03/24 10:33:30;;;;;;;12.98;9.27;;;;;;;;;;5074604;28;20036;-75
2022/03/24 10:36:05;;;;;;;15.52;9.90;;;;;;;;;;5080434;28;20131;-75
2022/03/24 10:38:33;;;;;;;11.68;8.70;;;;;;;;;;5077102;28;20121;-75
2022/03/24 10:41:16;;;;;;;12.65;9.15;;;;;;;;;;5086926;28;20459;-75
2022/03/24 10:43:44;;;;;;;10.38;9.10;;;;;;;;;;5064804;28;20049;-75
2022/03/24 10:46:18;;;;;;;13.35;10.00;;;;;;;;;;5080681;28;20039;-75
2022/03/24 10:48:47;;;;;;;11.30;9.52;;;;;;;;;;5071635;28;20071;-75
2022/03/24 10:51:44;;;;;;;12.18;9.20;;;;;;;;;;5083013;28;20043;-75
2022/03/24 10:54:19;;;;;;;14.68;10.05;;;;;;;;;;5061983;28;21296;-75
2022/03/24 10:56:46;;;;;;;13.18;9.55;;;;;;;;;;5094908;28;20483;-74
2022/03/24 10:59:13;;;;;;;12.23;8.45;;;;;;;;;;5090437;28;20527;-75
2022/03/24 11:01:41;;;;;;;14.25;9.60;;;;;;;;;;5076199;28;20040;-75
2022/03/24 11:04:09;;;;;;;10.52;9.52;;;;;;;;;;5070879;28;20064;-75
2022/03/24 11:06:36;;;;;;;11.13;9.43;;;;;;;;;;5082145;28;20122;-74
2022/03/24 11:09:04;;;;;;;13.75;9.57;;;;;;;;;;5066946;28;20104;-75
2022/03/24 11:11:31;;;;;;;13.02;9.70;;;;;;;;;;5069353;28;20035;-75
2022/03/24 11:14:00;;;;;;;10.55;9.32;;;;;;;;;;5074906;28;20052;-75
2022/03/24 11:16:28;;;;;;;10.15;8.98;;;;;;;;;;5079978;28;20060;-74
2022/03/24 11:18:57;;;;;;;11.45;9.40;;;;;;;;;;5073566;28;20102;-75
2022/03/24 11:21:39;;;;;;;11.65;8.18;;;;;;;;;;5050363;28;20158;-75
2022/03/24 11:24:07;;;;;;;14.23;9.48;;;;;;;;;;5056122;28;20074;-74
2022/03/24 11:26:35;;;;;;;8.90;8.00;;;;;;;;;;5062650;28;20389;-75
2022/03/24 11:29:04;;;;;;;11.02;8.63;;;;;;;;;;5067376;28;20036;-74
2022/03/24 11:31:32;;;;;;;11.02;9.20;;;;;;;;;;5069949;28;20136;-75
2022/03/24 11:34:01;;;;;;;12.60;8.95;;;;;;;;;;5069182;28;20086;-75
2022/03/24 11:36:30;;;;;;;9.07;8.18;;;;;;;;;;5073600;28;20568;-75
2022/03/24 11:38:59;;;;;;;15.60;9.00;;;;;;;;;;5074480;28;20044;-75
2022/03/24 11:41:30;;;;;;;16.20;9.45;;;;;;;;;;5075951;28;20044;-74
2022/03/24 11:43:59;;;;;;;10.75;8.85;;;;;;;;;;5088490;28;20090;-74
2022/03/24 11:46:30;;;;;;;10.25;8.48;;;;;;;;;;5089112;28;20055;-75
2022/03/24 11:49:14;;;;;;;9.48;8.57;;;;;;;;;;5089258;28;20050;-74
2022/03/24 11:51:41;;;;;;;10.18;8.43;;;;;;;;;;5089865;28;20042;-75
2022/03/24 11:54:09;;;;;;;9.25;8.30;;;;;;;;;;5055089;28;20040;-75
2022/03/24 11:56:37;;;;;;;13.10;8.20;;;;;;;;;;5076808;28;20040;-75
2022/03/24 11:59:06;;;;;;;9.70;8.00;;;;;;;;;;5069379;28;20642;-74
2022/03/24 12:01:35;;;;;;;9.00;7.80;;;;;;;;;;5077807;28;20039;-74
2022/03/24 12:04:08;;;;;;;15.20;10.27;;;;;;;;;;5068197;28;20078;-75
2022/03/24 12:06:42;;;;;;;13.95;8.23;;;;;;;;;;5077734;28;20113;-75
2022/03/24 12:09:34;;;;;;;11.38;8.02;;;;;;;;;;5088732;28;20036;-74
2022/03/24 12:12:01;;;;;;;;;;;;;;;;;;5082379;28;20036;-75
2022/03/24 12:14:36;;;;;;;8.05;7.25;;;;;;;;;;5065035;28;19934;-74
2022/03/24 12:17:07;;;;;;;8.80;7.90;;;;;;;;;;5081005;28;20047;-74
2022/03/24 12:19:43;;;;;;;9.30;7.65;;;;;;;;;;5086462;28;20074;-74
2022/03/24 12:22:25;;;;;;;10.57;7.28;;;;;;;;;;5086933;28;20123;-75
2022/03/24 12:24:53;;;;;;;10.82;7.53;;;;;;;;;;5068646;28;20041;-74
2022/03/24 12:27:21;;;;;;;7.28;6.57;;;;;;;;;;5066059;28;20773;-74
2022/03/24 12:30:08;;;;;;;8.38;6.80;;;;;;;;;;5067423;28;20045;-75
2022/03/24 12:32:36;;;;;;;9.35;6.57;;;;;;;;;;5067624;28;20090;-74
2022/03/24 12:35:04;;;;;;;8.18;6.88;;;;;;;;;;5049169;28;20049;-75
2022/03/24 12:37:31;;;;;;;9.32;7.45;;;;;;;;;;5091041;28;20087;-74
2022/03/24 12:40:11;;;;;;;9.52;8.18;;;;;;;;;;5090099;28;20045;-75
2022/03/24 12:42:41;;;;;;;7.88;7.07;;;;;;;;;;5081699;28;20120;-74
2022/03/24 12:45:10;;;;;;;10.02;7.75;;;;;;;;;;5089276;28;20071;-75
2022/03/24 12:47:37;;;;;;;11.75;7.95;;;;;;;;;;5036628;28;20044;-74
2022/03/24 12:50:17;;;;;;;8.55;7.75;;;;;;;;;;5068878;28;20045;-74
2022/03/24 12:52:58;;;;;;;8.82;7.43;;;;;;;;;;5069137;28;20054;-75
2022/03/24 12:55:33;;;;;;;15.10;7.50;;;;;;;;;;5073666;28;20091;-74
2022/03/24 12:58:05;;;;;;;7.03;6.40;;;;;;;;;;5084987;28;20068;-74
2022/03/24 13:00:34;;;;;;;7.43;6.72;;;;;;;;;;5087735;28;20047;-74
2022/03/24 13:03:03;;;;;;;9.00;6.68;;;;;;;;;;5075860;28;20492;-74
2022/03/24 13:05:33;;;;;;;7.43;6.72;;;;;;;;;;5084824;28;20044;-74
2022/03/24 13:08:02;;;;;;;8.27;6.93;;;;;;;;;;5091903;28;20328;-74
2022/03/24 13:10:32;;;;;;;8.43;6.97;;;;;;;;;;5089730;28;20093;-74
2022/03/24 13:13:01;;;;;;;7.68;6.38;;;;;;;;;;5072840;28;20109;-74
2022/03/24 13:15:31;;;;;;;6.88;6.20;;;;;;;;;;5072453;28;20045;-74
2022/03/24 13:17:59;;;;;;;8.20;6.75;;;;;;;;;;5072494;28;20537;-75
2022/03/24 13:20:28;;;;;;;8.65;7.13;;;;;;;;;;5074115;28;20139;-75
2022/03/24 13:23:01;;;;;;;8.25;7.28;;;;;;;;;;5092234;28;20561;-74
2022/03/24 13:25:29;;;;;;;7.63;6.93;;;;;;;;;;5091771;28;20186;-74
2022/03/24 13:27:57;;;;;;;7.57;6.88;;;;;;;;;;5093258;28;20531;-74
2022/03/24 13:30:26;;;;;;;8.80;7.35;;;;;;;;;;5090319;28;20466;-74
2022/03/24 13:32:55;;;;;;;8.05;7.35;;;;;;;;;;5093876;28;20198;-75
2022/03/24 13:35:24;;;;;;;8.48;7.55;;;;;;;;;;5092839;28;20063;-74
2022/03/24 13:37:56;;;;;;;9.10;7.40;;;;;;;;;;5092275;28;20044;-74
2022/03/24 13:40:25;;;;;;;7.70;6.95;;;;;;;;;;5090757;28;20072;-74
2022/03/24 13:42:53;;;;;;;8.50;7.60;;;;;;;;;;5086157;28;20044;-74
2022/03/24 13:45:20;;;;;;;8.13;6.93;;;;;;;;;;5070981;28;20499;-74
2022/03/24 13:47:51;;;;;;;8.25;7.20;;;;;;;;;;5073068;28;20055;-75
2022/03/24 13:50:26;;;;;;;8.25;7.03;;;;;;;;;;5091117;28;20488;-74
2022/03/24 13:52:54;;;;;;;7.93;6.97;;;;;;;;;;5071975;28;20040;-74
2022/03/24 13:55:23;;;;;;;10.40;7.20;;;;;;;;;;5070373;28;20056;-74
2022/03/24 13:57:53;;;;;;;11.88;6.80;;;;;;;;;;5071434;28;20084;-75
2022/03/24 14:00:28;;;;;;;11.82;7.13;;;;;;;;;;5058691;28;20143;-74
2022/03/24 14:02:59;;;;;;;12.25;7.40;;;;;;;;;;5068420;28;20430;-74
2022/03/24 14:05:46;;;;;;;7.32;6.63;;;;;;;;;;5080030;28;20051;-74
2022/03/24 14:08:25;;;;;;;8.77;6.68;;;;;;;;;;5089063;28;20040;-75
2022/03/24 14:10:54;;;;;;;8.73;6.47;;;;;;;;;;5083260;28;20527;-75
2022/03/24 14:13:23;;;;;;;6.85;6.22;;;;;;;;;;5076873;28;20089;-74
2022/03/24 14:15:50;;;;;;;7.13;6.40;;;;;;;;;;5077861;28;20082;-74
2022/03/24 14:18:20;;;;;;;8.32;7.20;;;;;;;;;;5074307;28;20036;-75
2022/03/24 14:20:48;;;;;;;8.18;6.53;;;;;;;;;;5081688;28;20040;-74
2022/03/24 14:23:25;;;;;;;8.00;6.75;;;;;;;;;;5075611;28;20036;-75
2022/03/24 14:26:00;;;;;;;9.02;6.72;;;;;;;;;;5075220;28;20079;-75
2022/03/24 14:28:31;;;;;;;8.27;6.82;;;;;;;;;;5078882;28;20075;-75
2022/03/24 14:30:59;;;;;;;8.02;7.07;;;;;;;;;;5078448;28;20120;-75
2022/03/24 14:33:28;;;;;;;8.20;6.45;;;;;;;;;;5082322;28;20040;-75
2022/03/24 14:35:59;;;;;;;7.18;6.43;;;;;;;;;;5064379;28;20071;-75
2022/03/24 14:38:26;;;;;;;7.68;6.90;;;;;;;;;;5079271;28;20044;-75
2022/03/24 14:40:55;;;;;;;7.68;6.97;;;;;;;;;;5081379;28;20045;-75
2022/03/24 14:43:24;;;;;;;8.32;6.95;;;;;;;;;;5059649;28;20175;-76
2022/03/24 14:45:53;;;;;;;11.02;5.93;;;;;;;;;;5077055;28;20072;-75
2022/03/24 14:48:20;;;;;;;6.35;5.60;;;;;;;;;;5063060;28;20299;-75
2022/03/24 14:50:50;;;;;;;6.32;5.60;;;;;;;;;;5086906;28;20135;-75
2022/03/24 14:53:22;;;;;;;9.25;6.40;;;;;;;;;;5074357;28;20127;-75